Chignik, AK (99548)

10:20 AM AKDT on September 03, 2015 (GMT -0800)
Pilot Point AP, Pilot Point, | | Change Station
CLOSE
Current Station
Airport
Location: Pilot Point AP, Pilot Point,,
Elevation: 56 ft
Nearby Weather Stations

Elev 56 ft 57.58 °N, 157.57 °W | Updated 24 minutes ago

Overcast
Overcast
55 °F
Feels Like 55 °F
N
4
Wind Variable Wind from South

Today
High -- | Low -- °F
--% Chance of Precip.
Yesterday
High -- | Low -- °F
Precip. -- in
7:41 AM 9:23 PM
Waning Gibbous, 68% visible
Pressure 29.68 in
Visibility 10.0 miles
Clouds Overcast 2900 ft
Dew Point 55 °F
Humidity 100%
Rainfall 0.14 in
Snow Depth Not available.
UV 0 out of 12
Pollen Not available.
Air Quality Not available.
Flu Activity Not available.
METAR PAPN 031756Z AUTO 19003KT 10SM OVC029 13/13 A2968 RMK AO2 PWINO
Pressure 29.68 in
Visibility 10.0 miles
Clouds Overcast 2900 ft
Dew Point 55 °F
Humidity 100%
Rainfall 0.14 in
Snow Depth Not available.
UV 0 out of 12
Pollen Not available.
Air Quality Not available.
Flu Activity Not available.
METAR PAPN 031756Z AUTO 19003KT 10SM OVC029 13/13 A2968 RMK AO2 PWINO

10-Day Weather Forecast

×

Almanac

Astronomy

Sep. 03, 2015 Rise Set
Actual Time
Civil Twilight
Nautical Twilight
Astronomical Twilight
Moon
Length of Visible Light
Length of Day
Tomorrow will be .
, % of the Moon is Illuminated

Today's Extremes

State Highs State Lows

Community

WunderPhotos

Upload Photos

1,851,999 photos uploaded!

WunderBlogs® & News

Nearby

Air Quality

  Air Quality AQ Index Pollutant
Not available.

Snow Depth

Station Depth Elevation

Earthquake Activity

City Distance Mag. Time & Date
Minimum magnitude displayed is 2.5.

Coastal Water Temperatures

Place Temperature

Stations

Nearby Weather Stations

Station Location Temp. Windchill Dew Point Humidity Wind Precip. Elev Updated Type